sensor_id;sensor_type;location;lat;lon;timestamp;P1;P2;P0
68713;PMS7003;55690;51.566;19.198;2022-08-25T00:01:13;7;4;4
68713;PMS7003;55690;51.566;19.198;2022-08-25T00:05:19;5;4;3
68713;PMS7003;55690;51.566;19.198;2022-08-25T00:09:23;6;6;4
68713;PMS7003;55690;51.566;19.198;2022-08-25T00:13:27;11;4;2
68713;PMS7003;55690;51.566;19.198;2022-08-25T00:17:29;6;6;5
68713;PMS7003;55690;51.566;19.198;2022-08-25T00:21:31;5;5;4
68713;PMS7003;55690;51.566;19.198;2022-08-25T00:25:33;18;8;6
68713;PMS7003;55690;51.566;19.198;2022-08-25T00:29:35;13;7;5
68713;PMS7003;55690;51.566;19.198;2022-08-25T00:33:38;3;3;3
68713;PMS7003;55690;51.566;19.198;2022-08-25T00:37:39;7;7;6
68713;PMS7003;55690;51.566;19.198;2022-08-25T00:41:42;11;7;6
68713;PMS7003;55690;51.566;19.198;2022-08-25T00:45:44;10;10;8
68713;PMS7003;55690;51.566;19.198;2022-08-25T00:49:47;23;14;11
68713;PMS7003;55690;51.566;19.198;2022-08-25T00:53:51;11;11;8
68713;PMS7003;55690;51.566;19.198;2022-08-25T00:57:55;21;12;6
68713;PMS7003;55690;51.566;19.198;2022-08-25T01:02:01;9;8;7
68713;PMS7003;55690;51.566;19.198;2022-08-25T01:06:05;9;9;8
68713;PMS7003;55690;51.566;19.198;2022-08-25T01:10:09;8;8;7
68713;PMS7003;55690;51.566;19.198;2022-08-25T01:18:17;9;7;7
68713;PMS7003;55690;51.566;19.198;2022-08-25T01:22:19;8;8;6
68713;PMS7003;55690;51.566;19.198;2022-08-25T01:26:24;10;8;7
68713;PMS7003;55690;51.566;19.198;2022-08-25T01:30:31;10;7;6
68713;PMS7003;55690;51.566;19.198;2022-08-25T01:34:34;7;5;5
68713;PMS7003;55690;51.566;19.198;2022-08-25T01:38:37;7;7;5
68713;PMS7003;55690;51.566;19.198;2022-08-25T01:46:52;12;11;10
68713;PMS7003;55690;51.566;19.198;2022-08-25T01:50:54;11;8;7
68713;PMS7003;55690;51.566;19.198;2022-08-25T01:54:56;5;5;4
68713;PMS7003;55690;51.566;19.198;2022-08-25T01:58:58;6;6;5
68713;PMS7003;55690;51.566;19.198;2022-08-25T02:02:59;18;10;9
68713;PMS7003;55690;51.566;19.198;2022-08-25T02:07:02;7;7;6
68713;PMS7003;55690;51.566;19.198;2022-08-25T02:11:05;7;7;6
68713;PMS7003;55690;51.566;19.198;2022-08-25T02:15:12;14;9;8
68713;PMS7003;55690;51.566;19.198;2022-08-25T02:27:27;5;5;4
68713;PMS7003;55690;51.566;19.198;2022-08-25T02:31:29;11;10;9
68713;PMS7003;55690;51.566;19.198;2022-08-25T02:35:31;13;10;7
68713;PMS7003;55690;51.566;19.198;2022-08-25T02:39:32;12;9;7
68713;PMS7003;55690;51.566;19.198;2022-08-25T02:43:38;9;8;6
68713;PMS7003;55690;51.566;19.198;2022-08-25T02:47:44;16;10;8
68713;PMS7003;55690;51.566;19.198;2022-08-25T02:51:49;9;8;7
68713;PMS7003;55690;51.566;19.198;2022-08-25T02:55:56;6;6;5
68713;PMS7003;55690;51.566;19.198;2022-08-25T03:00:03;8;7;5
68713;PMS7003;55690;51.566;19.198;2022-08-25T03:04:08;8;8;7
68713;PMS7003;55690;51.566;19.198;2022-08-25T03:08:14;9;7;5
68713;PMS7003;55690;51.566;19.198;2022-08-25T03:12:22;8;5;5
68713;PMS7003;55690;51.566;19.198;2022-08-25T03:16:26;5;5;5
68713;PMS7003;55690;51.566;19.198;2022-08-25T03:20:34;7;5;5
68713;PMS7003;55690;51.566;19.198;2022-08-25T03:24:39;11;7;6
68713;PMS7003;55690;51.566;19.198;2022-08-25T03:28:45;9;9;7
68713;PMS7003;55690;51.566;19.198;2022-08-25T03:32:51;17;8;8
68713;PMS7003;55690;51.566;19.198;2022-08-25T03:36:57;12;11;9
68713;PMS7003;55690;51.566;19.198;2022-08-25T03:41:23;10;8;6
68713;PMS7003;55690;51.566;19.198;2022-08-25T03:45:17;12;9;7
68713;PMS7003;55690;51.566;19.198;2022-08-25T03:49:22;9;9;8
68713;PMS7003;55690;51.566;19.198;2022-08-25T03:53:24;8;8;7
68713;PMS7003;55690;51.566;19.198;2022-08-25T03:57:28;10;10;6
68713;PMS7003;55690;51.566;19.198;2022-08-25T04:01:38;11;9;8
68713;PMS7003;55690;51.566;19.198;2022-08-25T04:05:41;14;11;7
68713;PMS7003;55690;51.566;19.198;2022-08-25T04:09:47;8;6;6
68713;PMS7003;55690;51.566;19.198;2022-08-25T04:13:54;16;8;7
68713;PMS7003;55690;51.566;19.198;2022-08-25T04:17:59;7;6;4
68713;PMS7003;55690;51.566;19.198;2022-08-25T04:22:05;8;8;7
68713;PMS7003;55690;51.566;19.198;2022-08-25T04:26:12;6;6;5
68713;PMS7003;55690;51.566;19.198;2022-08-25T04:30:19;7;6;5
68713;PMS7003;55690;51.566;19.198;2022-08-25T04:34:24;4;4;4
68713;PMS7003;55690;51.566;19.198;2022-08-25T04:38:30;10;3;3
68713;PMS7003;55690;51.566;19.198;2022-08-25T04:42:36;14;7;6
68713;PMS7003;55690;51.566;19.198;2022-08-25T04:46:42;14;7;7
68713;PMS7003;55690;51.566;19.198;2022-08-25T04:50:48;7;6;4
68713;PMS7003;55690;51.566;19.198;2022-08-25T04:54:55;8;8;7
68713;PMS7003;55690;51.566;19.198;2022-08-25T04:59:02;5;4;4
68713;PMS7003;55690;51.566;19.198;2022-08-25T05:03:07;5;5;4
68713;PMS7003;55690;51.566;19.198;2022-08-25T05:07:13;8;5;5
68713;PMS7003;55690;51.566;19.198;2022-08-25T05:11:19;4;4;3
68713;PMS7003;55690;51.566;19.198;2022-08-25T05:15:25;5;4;3
68713;PMS7003;55690;51.566;19.198;2022-08-25T05:19:39;4;4;3
68713;PMS7003;55690;51.566;19.198;2022-08-25T05:23:41;3;3;3
68713;PMS7003;55690;51.566;19.198;2022-08-25T05:27:43;7;7;6
68713;PMS7003;55690;51.566;19.198;2022-08-25T05:31:50;6;4;3
68713;PMS7003;55690;51.566;19.198;2022-08-25T05:35:56;4;4;4
68713;PMS7003;55690;51.566;19.198;2022-08-25T05:40:03;3;3;3
68713;PMS7003;55690;51.566;19.198;2022-08-25T05:44:08;5;5;4
68713;PMS7003;55690;51.566;19.198;2022-08-25T05:48:14;8;5;4
68713;PMS7003;55690;51.566;19.198;2022-08-25T05:52:20;7;7;6
68713;PMS7003;55690;51.566;19.198;2022-08-25T05:56:27;8;2;2
68713;PMS7003;55690;51.566;19.198;2022-08-25T06:00:33;4;4;4
68713;PMS7003;55690;51.566;19.198;2022-08-25T06:04:39;6;2;2
68713;PMS7003;55690;51.566;19.198;2022-08-25T06:08:45;7;5;4
68713;PMS7003;55690;51.566;19.198;2022-08-25T06:12:51;3;3;3
68713;PMS7003;55690;51.566;19.198;2022-08-25T06:16:58;6;6;5
68713;PMS7003;55690;51.566;19.198;2022-08-25T06:21:08;6;3;3
68713;PMS7003;55690;51.566;19.198;2022-08-25T06:25:13;5;5;3
68713;PMS7003;55690;51.566;19.198;2022-08-25T06:29:16;12;6;5
68713;PMS7003;55690;51.566;19.198;2022-08-25T06:33:22;8;5;4
68713;PMS7003;55690;51.566;19.198;2022-08-25T06:41:35;10;7;5
68713;PMS7003;55690;51.566;19.198;2022-08-25T06:45:40;14;8;7
68713;PMS7003;55690;51.566;19.198;2022-08-25T06:49:47;8;7;7
68713;PMS7003;55690;51.566;19.198;2022-08-25T06:53:53;6;6;6
68713;PMS7003;55690;51.566;19.198;2022-08-25T06:57:59;8;6;6
68713;PMS7003;55690;51.566;19.198;2022-08-25T07:02:05;11;8;6
68713;PMS7003;55690;51.566;19.198;2022-08-25T07:06:11;9;6;5
68713;PMS7003;55690;51.566;19.198;2022-08-25T07:10:17;8;8;7
68713;PMS7003;55690;51.566;19.198;2022-08-25T07:14:24;7;6;4
68713;PMS7003;55690;51.566;19.198;2022-08-25T07:18:30;5;5;5
68713;PMS7003;55690;51.566;19.198;2022-08-25T07:22:36;11;9;6
68713;PMS7003;55690;51.566;19.198;2022-08-25T07:26:42;5;5;5
68713;PMS7003;55690;51.566;19.198;2022-08-25T07:30:49;6;6;6
68713;PMS7003;55690;51.566;19.198;2022-08-25T07:34:54;9;6;5
68713;PMS7003;55690;51.566;19.198;2022-08-25T07:39:08;6;6;5
68713;PMS7003;55690;51.566;19.198;2022-08-25T07:43:10;10;6;5
68713;PMS7003;55690;51.566;19.198;2022-08-25T07:47:15;10;6;6
68713;PMS7003;55690;51.566;19.198;2022-08-25T07:51:19;5;2;2
68713;PMS7003;55690;51.566;19.198;2022-08-25T07:55:26;8;7;6
68713;PMS7003;55690;51.566;19.198;2022-08-25T07:59:31;7;7;7
68713;PMS7003;55690;51.566;19.198;2022-08-25T08:03:37;7;7;6
68713;PMS7003;55690;51.566;19.198;2022-08-25T08:07:44;9;9;7
68713;PMS7003;55690;51.566;19.198;2022-08-25T08:11:50;10;6;6
68713;PMS7003;55690;51.566;19.198;2022-08-25T08:15:56;18;8;7
68713;PMS7003;55690;51.566;19.198;2022-08-25T08:20:03;8;7;6
68713;PMS7003;55690;51.566;19.198;2022-08-25T08:24:08;6;6;6
68713;PMS7003;55690;51.566;19.198;2022-08-25T08:28:14;9;9;5
68713;PMS7003;55690;51.566;19.198;2022-08-25T08:32:20;9;8;7
68713;PMS7003;55690;51.566;19.198;2022-08-25T08:36:27;8;6;5
68713;PMS7003;55690;51.566;19.198;2022-08-25T08:40:33;13;9;7
68713;PMS7003;55690;51.566;19.198;2022-08-25T08:53:26;9;9;7
68713;PMS7003;55690;51.566;19.198;2022-08-25T08:57:38;14;9;7
68713;PMS7003;55690;51.566;19.198;2022-08-25T09:01:48;9;9;9
68713;PMS7003;55690;51.566;19.198;2022-08-25T09:06:00;22;8;6
68713;PMS7003;55690;51.566;19.198;2022-08-25T09:10:06;19;11;9
68713;PMS7003;55690;51.566;19.198;2022-08-25T09:14:12;8;8;7
68713;PMS7003;55690;51.566;19.198;2022-08-25T09:31:08;7;7;6
68713;PMS7003;55690;51.566;19.198;2022-08-25T09:39:21;9;9;8
68713;PMS7003;55690;51.566;19.198;2022-08-25T09:47:41;12;7;7
68713;PMS7003;55690;51.566;19.198;2022-08-25T09:51:45;10;10;9
68713;PMS7003;55690;51.566;19.198;2022-08-25T09:55:51;7;7;7
68713;PMS7003;55690;51.566;19.198;2022-08-25T10:04:12;14;14;13
68713;PMS7003;55690;51.566;19.198;2022-08-25T10:08:23;9;9;8
68713;PMS7003;55690;51.566;19.198;2022-08-25T10:12:37;12;12;10
68713;PMS7003;55690;51.566;19.198;2022-08-25T10:16:43;12;11;10
68713;PMS7003;55690;51.566;19.198;2022-08-25T10:25:00;16;11;10
68713;PMS7003;55690;51.566;19.198;2022-08-25T10:29:09;14;9;9
68713;PMS7003;55690;51.566;19.198;2022-08-25T10:54:37;12;12;10
68713;PMS7003;55690;51.566;19.198;2022-08-25T11:07:14;10;10;9
68713;PMS7003;55690;51.566;19.198;2022-08-25T11:19:51;11;11;9
68713;PMS7003;55690;51.566;19.198;2022-08-25T11:32:23;15;15;11
68713;PMS7003;55690;51.566;19.198;2022-08-25T11:36:27;11;11;10
68713;PMS7003;55690;51.566;19.198;2022-08-25T11:49:07;17;14;12
68713;PMS7003;55690;51.566;19.198;2022-08-25T11:57:20;13;13;12
68713;PMS7003;55690;51.566;19.198;2022-08-25T12:05:50;18;14;11
68713;PMS7003;55690;51.566;19.198;2022-08-25T12:14:19;15;13;10
68713;PMS7003;55690;51.566;19.198;2022-08-25T12:22:43;10;8;7
68713;PMS7003;55690;51.566;19.198;2022-08-25T12:31:06;19;12;11
68713;PMS7003;55690;51.566;19.198;2022-08-25T12:43:40;14;13;11
68713;PMS7003;55690;51.566;19.198;2022-08-25T12:47:49;8;8;8
68713;PMS7003;55690;51.566;19.198;2022-08-25T12:56:15;18;11;10
68713;PMS7003;55690;51.566;19.198;2022-08-25T13:00:28;18;11;9
68713;PMS7003;55690;51.566;19.198;2022-08-25T13:17:04;17;13;12
68713;PMS7003;55690;51.566;19.198;2022-08-25T13:25:23;10;10;10
68713;PMS7003;55690;51.566;19.198;2022-08-25T13:37:40;13;10;10
68713;PMS7003;55690;51.566;19.198;2022-08-25T13:58:10;15;13;9
68713;PMS7003;55690;51.566;19.198;2022-08-25T14:02:25;13;11;9
68713;PMS7003;55690;51.566;19.198;2022-08-25T14:14:40;12;11;9
68713;PMS7003;55690;51.566;19.198;2022-08-25T14:18:46;11;9;7
68713;PMS7003;55690;51.566;19.198;2022-08-25T14:22:51;8;8;7
68713;PMS7003;55690;51.566;19.198;2022-08-25T14:26:56;11;11;11
68713;PMS7003;55690;51.566;19.198;2022-08-25T14:35:04;9;9;8
68713;PMS7003;55690;51.566;19.198;2022-08-25T14:39:07;9;5;5
68713;PMS7003;55690;51.566;19.198;2022-08-25T14:43:10;10;9;8
68713;PMS7003;55690;51.566;19.198;2022-08-25T14:47:12;13;9;9
68713;PMS7003;55690;51.566;19.198;2022-08-25T14:51:13;19;12;11
68713;PMS7003;55690;51.566;19.198;2022-08-25T14:59:28;12;11;7
68713;PMS7003;55690;51.566;19.198;2022-08-25T15:07:34;17;11;9
68713;PMS7003;55690;51.566;19.198;2022-08-25T15:11:54;16;14;11
68713;PMS7003;55690;51.566;19.198;2022-08-25T15:20:05;13;10;8
68713;PMS7003;55690;51.566;19.198;2022-08-25T15:24:09;9;8;6
68713;PMS7003;55690;51.566;19.198;2022-08-25T15:28:15;9;8;6
68713;PMS7003;55690;51.566;19.198;2022-08-25T15:40:30;6;5;3
68713;PMS7003;55690;51.566;19.198;2022-08-25T15:48:38;10;10;9
68713;PMS7003;55690;51.566;19.198;2022-08-25T15:52:41;10;8;7
68713;PMS7003;55690;51.566;19.198;2022-08-25T15:56:42;10;10;8
68713;PMS7003;55690;51.566;19.198;2022-08-25T16:00:45;11;7;6
68713;PMS7003;55690;51.566;19.198;2022-08-25T16:04:52;7;7;6
68713;PMS7003;55690;51.566;19.198;2022-08-25T16:08:53;6;6;5
68713;PMS7003;55690;51.566;19.198;2022-08-25T16:12:55;7;6;5
68713;PMS7003;55690;51.566;19.198;2022-08-25T16:17:00;8;7;7
68713;PMS7003;55690;51.566;19.198;2022-08-25T16:21:02;11;11;9
68713;PMS7003;55690;51.566;19.198;2022-08-25T16:25:04;14;7;6
68713;PMS7003;55690;51.566;19.198;2022-08-25T16:29:10;9;8;7
68713;PMS7003;55690;51.566;19.198;2022-08-25T16:33:15;5;5;5
68713;PMS7003;55690;51.566;19.198;2022-08-25T16:41:24;5;5;4
68713;PMS7003;55690;51.566;19.198;2022-08-25T16:45:35;6;6;6
68713;PMS7003;55690;51.566;19.198;2022-08-25T16:58:01;9;8;7
68713;PMS7003;55690;51.566;19.198;2022-08-25T17:02:07;6;6;6
68713;PMS7003;55690;51.566;19.198;2022-08-25T17:10:13;9;7;6
68713;PMS7003;55690;51.566;19.198;2022-08-25T17:14:18;23;11;8
68713;PMS7003;55690;51.566;19.198;2022-08-25T17:22:24;8;5;4
68713;PMS7003;55690;51.566;19.198;2022-08-25T17:26:31;8;7;6
68713;PMS7003;55690;51.566;19.198;2022-08-25T17:34:38;17;10;9
68713;PMS7003;55690;51.566;19.198;2022-08-25T17:38:40;21;7;6
68713;PMS7003;55690;51.566;19.198;2022-08-25T17:42:42;15;8;6
68713;PMS7003;55690;51.566;19.198;2022-08-25T17:46:44;23;10;8
68713;PMS7003;55690;51.566;19.198;2022-08-25T17:58:53;19;6;5
68713;PMS7003;55690;51.566;19.198;2022-08-25T18:02:56;9;9;6
68713;PMS7003;55690;51.566;19.198;2022-08-25T18:11:02;14;11;10
68713;PMS7003;55690;51.566;19.198;2022-08-25T18:15:05;11;11;10
68713;PMS7003;55690;51.566;19.198;2022-08-25T18:23:12;12;12;11
68713;PMS7003;55690;51.566;19.198;2022-08-25T18:35:28;10;10;8
68713;PMS7003;55690;51.566;19.198;2022-08-25T18:43:39;11;11;9
68713;PMS7003;55690;51.566;19.198;2022-08-25T18:47:40;11;11;10
68713;PMS7003;55690;51.566;19.198;2022-08-25T18:55:47;15;14;11
68713;PMS7003;55690;51.566;19.198;2022-08-25T18:59:49;16;13;11
68713;PMS7003;55690;51.566;19.198;2022-08-25T19:03:52;16;14;10
68713;PMS7003;55690;51.566;19.198;2022-08-25T19:07:53;18;16;14
68713;PMS7003;55690;51.566;19.198;2022-08-25T19:11:55;10;8;8
68713;PMS7003;55690;51.566;19.198;2022-08-25T19:20:02;18;15;13
68713;PMS7003;55690;51.566;19.198;2022-08-25T19:24:05;16;16;13
68713;PMS7003;55690;51.566;19.198;2022-08-25T19:28:10;12;12;11
68713;PMS7003;55690;51.566;19.198;2022-08-25T19:32:12;14;14;11
68713;PMS7003;55690;51.566;19.198;2022-08-25T19:36:14;13;12;10
68713;PMS7003;55690;51.566;19.198;2022-08-25T19:40:20;18;17;15
68713;PMS7003;55690;51.566;19.198;2022-08-25T19:52:33;13;11;9
68713;PMS7003;55690;51.566;19.198;2022-08-25T19:56:38;16;16;11
68713;PMS7003;55690;51.566;19.198;2022-08-25T20:04:49;32;20;17
68713;PMS7003;55690;51.566;19.198;2022-08-25T20:12:56;25;15;11
68713;PMS7003;55690;51.566;19.198;2022-08-25T20:17:02;21;18;13
68713;PMS7003;55690;51.566;19.198;2022-08-25T20:21:05;14;14;12
68713;PMS7003;55690;51.566;19.198;2022-08-25T20:25:11;15;13;11
68713;PMS7003;55690;51.566;19.198;2022-08-25T20:29:19;13;12;11
68713;PMS7003;55690;51.566;19.198;2022-08-25T20:33:21;15;15;11
68713;PMS7003;55690;51.566;19.198;2022-08-25T20:41:27;12;11;10
68713;PMS7003;55690;51.566;19.198;2022-08-25T20:45:28;15;11;10
68713;PMS7003;55690;51.566;19.198;2022-08-25T20:53:36;12;12;9
68713;PMS7003;55690;51.566;19.198;2022-08-25T20:57:39;15;12;11
68713;PMS7003;55690;51.566;19.198;2022-08-25T21:05:45;13;13;11
68713;PMS7003;55690;51.566;19.198;2022-08-25T21:09:47;15;13;12
68713;PMS7003;55690;51.566;19.198;2022-08-25T21:13:49;14;14;12
68713;PMS7003;55690;51.566;19.198;2022-08-25T21:19:34;15;13;10
68713;PMS7003;55690;51.566;19.198;2022-08-25T21:23:41;15;15;13
68713;PMS7003;55690;51.566;19.198;2022-08-25T21:27:47;12;9;8
68713;PMS7003;55690;51.566;19.198;2022-08-25T21:31:53;11;11;10
68713;PMS7003;55690;51.566;19.198;2022-08-25T21:35:59;18;16;14
68713;PMS7003;55690;51.566;19.198;2022-08-25T21:40:05;14;14;9
68713;PMS7003;55690;51.566;19.198;2022-08-25T21:44:11;17;14;11
68713;PMS7003;55690;51.566;19.198;2022-08-25T21:48:17;19;17;13
68713;PMS7003;55690;51.566;19.198;2022-08-25T21:52:24;12;9;8
68713;PMS7003;55690;51.566;19.198;2022-08-25T21:56:30;12;12;10
68713;PMS7003;55690;51.566;19.198;2022-08-25T22:00:36;20;10;9
68713;PMS7003;55690;51.566;19.198;2022-08-25T22:04:42;9;9;7
68713;PMS7003;55690;51.566;19.198;2022-08-25T22:08:48;10;6;6
68713;PMS7003;55690;51.566;19.198;2022-08-25T22:12:54;15;9;8
68713;PMS7003;55690;51.566;19.198;2022-08-25T22:17:01;16;13;12
68713;PMS7003;55690;51.566;19.198;2022-08-25T22:21:07;13;11;9
68713;PMS7003;55690;51.566;19.198;2022-08-25T22:25:13;9;9;8
68713;PMS7003;55690;51.566;19.198;2022-08-25T22:29:19;9;9;6
68713;PMS7003;55690;51.566;19.198;2022-08-25T22:33:25;9;9;7
68713;PMS7003;55690;51.566;19.198;2022-08-25T22:37:31;11;9;8
68713;PMS7003;55690;51.566;19.198;2022-08-25T22:41:37;16;4;3
68713;PMS7003;55690;51.566;19.198;2022-08-25T22:45:44;18;16;10
68713;PMS7003;55690;51.566;19.198;2022-08-25T22:49:50;10;9;7
68713;PMS7003;55690;51.566;19.198;2022-08-25T22:53:59;18;10;9
68713;PMS7003;55690;51.566;19.198;2022-08-25T22:58:02;7;7;6
68713;PMS7003;55690;51.566;19.198;2022-08-25T23:02:08;8;7;6
68713;PMS7003;55690;51.566;19.198;2022-08-25T23:06:15;7;7;6
68713;PMS7003;55690;51.566;19.198;2022-08-25T23:10:21;9;8;8
68713;PMS7003;55690;51.566;19.198;2022-08-25T23:14:31;15;8;6
68713;PMS7003;55690;51.566;19.198;2022-08-25T23:18:36;8;8;7
68713;PMS7003;55690;51.566;19.198;2022-08-25T23:22:39;13;13;12
68713;PMS7003;55690;51.566;19.198;2022-08-25T23:26:45;11;8;7
68713;PMS7003;55690;51.566;19.198;2022-08-25T23:30:51;11;9;8
68713;PMS7003;55690;51.566;19.198;2022-08-25T23:34:58;7;7;6
68713;PMS7003;55690;51.566;19.198;2022-08-25T23:39:04;8;8;7
68713;PMS7003;55690;51.566;19.198;2022-08-25T23:43:10;7;6;5
68713;PMS7003;55690;51.566;19.198;2022-08-25T23:47:16;5;5;4
68713;PMS7003;55690;51.566;19.198;2022-08-25T23:51:27;6;6;6
68713;PMS7003;55690;51.566;19.198;2022-08-25T23:55:31;8;8;7
68713;PMS7003;55690;51.566;19.198;2022-08-25T23:59:35;11;7;6
